»·PEaware :: MYSKY KVNY-KABQ

MYSKY :: KVNY-KABQ

FLIGHT INFORMATION

Flight Status: Arrived
Operator: Unknown
More flights by this operator :: More flights under this callsign
Pilot: Karsten W. (28069)
Aircraft: BOEING 737-800
(B738)
More flights by this aircraft type
Origin: KVNY Van Nuys
United States
Destination: KABQ Albuquerque Intl Sunport
United States
More flights between these airports :: More routes between these airports
Route: +HERYS3 HEC J6 EED J8 GUP LOWBO3
File this flight plan on PilotEdge
Remarks:
Altitude:
(Current/Filed)
39,000ft
Speed:
(Current/Filed)
425kts
Departed: 01-Aug-20 11:02 AM
Arrived: 01-Aug-20 12:38 PM
Distance/Time
Traveled:
589nm/1:36
Distance/Time
To Go:
Arrived

Flight Plot

Page will automatically refresh every two minutes.


Map Options




Map Legend


Flown Route
Filed Route
Departure Airport
Arrival Airport
Navaid (VOR, NDB)
Fix

Horizontal Profiles

Position Reports

Time Latitude Longitude Heading Altitude Ground
Speed
01-Aug-20 10:31 34.216809 -118.495899 9 810ft 0kts
01-Aug-20 10:32 34.216809 -118.495899 9 810ft 0kts
01-Aug-20 10:33 34.216809 -118.495899 9 810ft 0kts
01-Aug-20 10:34 34.216809 -118.495899 9 810ft 0kts
01-Aug-20 10:35 34.216809 -118.495899 9 810ft 0kts
01-Aug-20 10:36 34.216809 -118.495899 9 810ft 0kts
01-Aug-20 10:37 34.216809 -118.495899 9 810ft 0kts
01-Aug-20 10:38 34.216809 -118.495899 9 810ft 0kts
01-Aug-20 10:39 34.216809 -118.495899 9 810ft 0kts
01-Aug-20 10:40 34.216809 -118.495899 9 810ft 0kts
01-Aug-20 10:41 34.216809 -118.495899 9 810ft 0kts
01-Aug-20 10:42 34.216809 -118.495899 9 810ft 0kts
01-Aug-20 10:43 34.216809 -118.495899 9 810ft 0kts
01-Aug-20 10:44 34.216809 -118.495899 9 810ft 0kts
01-Aug-20 10:45 34.216809 -118.495899 9 810ft 0kts
01-Aug-20 10:46 34.216809 -118.495899 9 810ft 0kts
01-Aug-20 10:47 34.216809 -118.495899 9 810ft 0kts
01-Aug-20 10:48 34.216809 -118.495899 9 810ft 0kts
01-Aug-20 10:49 34.216809 -118.495899 9 810ft 0kts
01-Aug-20 10:50 34.216809 -118.495899 9 810ft 0kts
01-Aug-20 10:51 34.216809 -118.495899 9 810ft 0kts
01-Aug-20 10:52 34.216809 -118.495899 9 810ft 0kts
01-Aug-20 10:53 34.216810 -118.495898 9 810ft 0kts
01-Aug-20 10:54 34.216810 -118.495898 9 810ft 0kts
01-Aug-20 10:55 34.217528 -118.494844 99 810ft 14kts
01-Aug-20 10:56 34.218310 -118.492478 355 810ft 10kts
01-Aug-20 10:57 34.218741 -118.492197 86 810ft 0kts
01-Aug-20 10:58 34.218741 -118.492197 86 810ft 0kts
01-Aug-20 10:59 34.218741 -118.492197 86 810ft 0kts
01-Aug-20 11:00 34.217765 -118.491143 177 810ft 21kts
01-Aug-20 11:01 34.183149 -118.488506 168 2377ft 158kts
01-Aug-20 11:02 34.149016 -118.437648 121 3957ft 243kts
01-Aug-20 11:03 34.112053 -118.367854 121 4020ft 247kts
01-Aug-20 11:04 34.124209 -118.312132 11 4678ft 244kts
01-Aug-20 11:05 34.192564 -118.317114 354 7669ft 259kts
01-Aug-20 11:06 34.272476 -118.321368 354 9798ft 303kts
01-Aug-20 11:07 34.362491 -118.326209 354 11589ft 358kts
01-Aug-20 11:08 34.469966 -118.319516 21 13101ft 410kts
01-Aug-20 11:09 34.561755 -118.234525 39 14091ft 417kts
01-Aug-20 11:10 34.648631 -118.141229 53 14489ft 422kts
01-Aug-20 11:11 34.686044 -118.007290 79 17053ft 428kts
01-Aug-20 11:12 34.698582 -117.861560 86 19143ft 440kts
01-Aug-20 11:13 34.706627 -117.710992 87 20885ft 454kts
01-Aug-20 11:14 34.712467 -117.555506 87 22379ft 467kts
01-Aug-20 11:15 34.722724 -117.396277 83 23111ft 473kts
01-Aug-20 11:16 34.736113 -117.237381 84 23119ft 473kts
01-Aug-20 11:17 34.748991 -117.077436 84 24315ft 482kts
01-Aug-20 11:18 34.762387 -116.912931 84 25430ft 490kts
01-Aug-20 11:19 34.775649 -116.746568 84 26427ft 498kts
01-Aug-20 11:20 34.787640 -116.588403 84 30119ft 447kts
01-Aug-20 11:21 34.797703 -116.438619 88 32240ft 443kts
01-Aug-20 11:22 34.796016 -116.289345 90 34169ft 438kts
01-Aug-20 11:23 34.793952 -116.141627 90 35909ft 435kts
01-Aug-20 11:24 34.792244 -115.994008 90 37156ft 439kts
01-Aug-20 11:25 34.791896 -115.957638 89 37426ft 441kts
01-Aug-20 11:26 34.791872 -115.955115 89 37444ft 441kts
01-Aug-20 11:27 34.790197 -115.805181 89 38544ft 445kts
01-Aug-20 11:28 34.788163 -115.650591 90 38742ft 468kts
01-Aug-20 11:29 34.785793 -115.489006 90 39004ft 483kts
01-Aug-20 11:30 34.783176 -115.326021 90 38992ft 481kts
01-Aug-20 11:31 34.780348 -115.163373 90 38972ft 481kts
01-Aug-20 11:32 34.777310 -115.001102 90 38957ft 481kts
01-Aug-20 11:33 34.774167 -114.837825 89 38950ft 481kts
01-Aug-20 11:34 34.770766 -114.675059 90 38949ft 482kts
01-Aug-20 11:35 34.766959 -114.512173 89 38950ft 481kts
01-Aug-20 11:36 34.783598 -114.351788 77 38961ft 478kts
01-Aug-20 11:37 34.806978 -114.192588 77 38986ft 478kts
01-Aug-20 11:38 34.830052 -114.033403 77 39015ft 478kts
01-Aug-20 11:39 34.853263 -113.874154 77 39063ft 477kts
01-Aug-20 11:41 34.876065 -113.714593 77 39120ft 478kts
01-Aug-20 11:42 34.898611 -113.554833 77 39151ft 478kts
01-Aug-20 11:43 34.920941 -113.394930 77 39179ft 479kts
01-Aug-20 11:44 34.943310 -113.234890 77 39211ft 479kts
01-Aug-20 11:45 34.965113 -113.074463 77 39249ft 479kts
01-Aug-20 11:46 34.986729 -112.914117 77 39285ft 479kts
01-Aug-20 11:47 35.008059 -112.753471 77 39317ft 479kts
01-Aug-20 11:48 35.029102 -112.593082 78 39346ft 479kts
01-Aug-20 11:49 35.050453 -112.432643 77 39372ft 479kts
01-Aug-20 11:50 35.071481 -112.271679 78 39392ft 479kts
01-Aug-20 11:51 35.092148 -112.111060 78 39412ft 479kts
01-Aug-20 11:52 35.112839 -111.950288 77 39417ft 479kts
01-Aug-20 11:53 35.132892 -111.789780 78 39439ft 478kts
01-Aug-20 11:54 35.153044 -111.629181 77 39474ft 479kts
01-Aug-20 11:55 35.173492 -111.467935 77 39468ft 478kts
01-Aug-20 11:56 35.193598 -111.307179 77 39444ft 478kts
01-Aug-20 11:57 35.213929 -111.146959 77 39401ft 478kts
01-Aug-20 11:58 35.234115 -110.985780 77 39350ft 478kts
01-Aug-20 11:59 35.253895 -110.825076 77 39311ft 478kts
01-Aug-20 11:59 35.270217 -110.690864 77 39293ft 478kts
01-Aug-20 12:00 35.289565 -110.529994 77 39288ft 478kts
01-Aug-20 12:02 35.311922 -110.341743 78 39301ft 478kts
01-Aug-20 12:02 35.327663 -110.207622 78 39303ft 479kts
01-Aug-20 12:03 35.346409 -110.046163 78 39311ft 479kts
01-Aug-20 12:04 35.364940 -109.884616 78 39320ft 478kts
01-Aug-20 12:05 35.383289 -109.722735 78 39349ft 478kts
01-Aug-20 12:06 35.401350 -109.561415 78 39370ft 477kts
01-Aug-20 12:07 35.419185 -109.400143 78 39386ft 477kts
01-Aug-20 12:08 35.436889 -109.239145 78 39401ft 477kts
01-Aug-20 12:09 35.454324 -109.078339 78 39406ft 476kts
01-Aug-20 12:10 35.471340 -108.916977 78 39401ft 475kts
01-Aug-20 12:11 35.479323 -108.756425 84 38042ft 469kts
01-Aug-20 12:12 35.482598 -108.593754 84 34529ft 483kts
01-Aug-20 12:13 35.485837 -108.427916 84 30855ft 489kts
01-Aug-20 12:14 35.481974 -108.259390 92 26881ft 495kts
01-Aug-20 12:15 35.470390 -108.094544 92 23698ft 473kts
01-Aug-20 12:16 35.460021 -107.941728 92 22271ft 420kts
01-Aug-20 12:17 35.450786 -107.806579 91 21391ft 378kts
01-Aug-20 12:18 35.443106 -107.679328 91 19862ft 374kts
01-Aug-20 12:19 35.435171 -107.553563 91 18242ft 365kts
01-Aug-20 12:20 35.427178 -107.430474 91 16562ft 358kts
01-Aug-20 12:21 35.400427 -107.315625 120 15093ft 353kts
01-Aug-20 12:22 35.347717 -107.216478 120 13732ft 340kts
01-Aug-20 12:23 35.298361 -107.119962 122 12528ft 327kts
01-Aug-20 12:24 35.237151 -107.040727 137 11381ft 316kts
01-Aug-20 12:25 35.176250 -106.972678 137 11108ft 277kts
01-Aug-20 12:26 35.119656 -106.905456 136 9530ft 291kts
01-Aug-20 12:27 35.100973 -106.825019 45 9006ft 263kts
01-Aug-20 12:28 35.149241 -106.848056 260 8528ft 215kts
01-Aug-20 12:29 35.124030 -106.904716 238 8038ft 185kts
01-Aug-20 12:30 35.078697 -106.927470 172 8043ft 192kts
01-Aug-20 12:31 35.044379 -106.890679 94 8013ft 182kts
01-Aug-20 12:32 35.045217 -106.828487 89 8040ft 183kts
01-Aug-20 12:33 35.045173 -106.766078 91 7841ft 181kts
01-Aug-20 12:34 35.044836 -106.706505 92 6841ft 172kts
01-Aug-20 12:35 35.044571 -106.650902 91 5915ft 155kts
01-Aug-20 12:36 35.044197 -106.603518 89 5363ft 73kts
01-Aug-20 12:37 35.045510 -106.597285 40 5363ft 6kts
01-Aug-20 12:38 35.045944 -106.599633 271 5363ft 9kts

Navigation Log

Ident Type
Flight plan parsing failed, navigation log unavailable